Cassville, New York
Current Conditions -  °F | °C
As of 9:53 PM on Sunday 21 Dec 2014 (Local Time) from KRME Reporting Station
Overcast Overcast  
Wind Chill: 30°   Ceiling: 2600
Heat Index: 30°   Visibility: 10mi
Dew Point: 23°   Wind: 3mph
Humidity: 75%   Direction: 110°ESE
Pressure: 30.36"   Gusts: NA
Location:  42.95°N, 75.25°W
Report Text: KRME 220253Z AUTO 11003KT 10SM OVC026 M01/M05 A3036 RMK AO2 SLP287 T10111050 53001
Loading
Personal Weather Stations






























Interactive Weather Map New forecast layout! Learn more

10-Day Weather Forecast

Advertisements
Track Severe Weather on mobile